Saint George, Kansas
Current Conditions -  °F | °C
As of 12:52 AM on Monday 22 Dec 2014 (Local Time) from KMHK Reporting Station
Haze Haze  
Wind Chill: 38°   Ceiling: 800
Heat Index: 44°   Visibility: 4mi
Dew Point: 42°   Wind: 12mph
Humidity: 93%   Direction: 170°S
Pressure: 29.63"   Gusts: NA
Location:  39.19°N, 96.42°W
Report Text: KMHK 220652Z AUTO 17010KT 4SM BR OVC008 07/06 A2963 RMK AO2 SLP039 T00670056 TSNO
Loading
Personal Weather Stations






























Interactive Weather Map New forecast layout! Learn more

10-Day Weather Forecast

Advertisements
Track Severe Weather on mobile